Hovedside
METAR-TAF:

METAR-TAF

Lufthavner :

Røros, Norge

Røros lufthavn

breddegrad: 62-35N, lengdegrad: 011-21E, høyde over havet: 626 m

Gjeldene værobservasjon

Denne rapporten ble laget for 41 minutter siden, klokken 09:50 UTC
Vind 5 kt fra skiftende retning
Temperatur 12°C
Luftfuktighet 50%
Trykk 990 hPa
Sikt 10 km eller mer

METAR: ENRO 250950Z AUTO VRB05KT 9999NDV FEW036/// 12/02 Q0990

Tid: 12:31 (10:31 UTC)


TAF: fraværende

Værobservasjoner og værvarsel for over 4000 flyplasser (METAR- og TAF-rapporter).

Tilgjengelige stasjoner er representert av de røde og gule prikkene på kartet.

Hold musepekeren over prikken for å se navnet på stasjonen.

Klikk så for å se værobservasjoner og -varsler.

For å forandre kartet kan du klikke på den grønne knappen med svart kryss for å zoome inn, på den grønne knappen med strek for å zoome ut, eller på de grønne pilene for å se tilstøtende kart.


METAR-TAF: